Time;durP1;ratioP1;P1;durP2;ratioP2;P2;SDS_P1;SDS_P2;PMS_P1;PMS_P2;Temp;Humidity;BMP_temperature;BMP_pressure;BME280_temperature;BME280_humidity;BME280_pressure;Samples;Min_cycle;Max_cycle;Signal;HPM_P1;HPM_P2
2023/12/19 00:01:59;;;;;;;36.30;16.70;;;;;;;4.22;100.00;102477.06;5057497;28;20029;-59
2023/12/19 00:04:24;;;;;;;33.10;15.98;;;;;;;4.25;100.00;102489.50;5051749;28;20021;-59
2023/12/19 00:06:49;;;;;;;37.65;16.60;;;;;;;4.28;100.00;102492.66;5058120;28;20686;-59
2023/12/19 00:09:15;;;;;;;35.70;15.40;;;;;;;4.31;100.00;102485.88;5054522;28;20035;-59
2023/12/19 00:11:40;;;;;;;34.65;16.15;;;;;;;4.28;100.00;102472.59;5062123;28;20139;-59
2023/12/19 00:14:06;;;;;;;38.45;16.45;;;;;;;4.26;100.00;102456.41;5067972;28;20086;-59
2023/12/19 00:16:32;;;;;;;35.28;15.98;;;;;;;4.22;100.00;102458.75;5055387;28;20043;-59
2023/12/19 00:18:58;;;;;;;35.38;17.13;;;;;;;4.27;100.00;102462.72;5053331;28;20369;-59
2023/12/19 00:21:23;;;;;;;35.70;15.00;;;;;;;4.27;100.00;102457.22;5071859;28;20029;-59
2023/12/19 00:23:48;;;;;;;33.08;14.35;;;;;;;4.28;100.00;102453.44;5065254;28;20020;-59
2023/12/19 00:26:15;;;;;;;36.88;17.42;;;;;;;4.22;100.00;102438.72;5055070;28;20044;-59
2023/12/19 00:28:41;;;;;;;33.95;15.93;;;;;;;4.31;100.00;102447.50;5052358;28;20037;-59
2023/12/19 00:31:06;;;;;;;34.88;16.65;;;;;;;4.35;100.00;102438.63;5060041;28;20804;-59
2023/12/19 00:33:33;;;;;;;36.40;15.85;;;;;;;4.35;100.00;102430.41;5063378;28;20060;-56
2023/12/19 00:35:58;;;;;;;36.65;16.20;;;;;;;4.39;100.00;102413.53;5051222;28;20068;-59
2023/12/19 00:38:23;;;;;;;35.88;16.10;;;;;;;4.35;100.00;102416.69;5061922;28;20048;-59
2023/12/19 00:40:49;;;;;;;36.00;16.98;;;;;;;4.35;100.00;102415.84;5047366;28;20078;-59
2023/12/19 00:43:14;;;;;;;38.65;19.05;;;;;;;4.32;100.00;102419.06;5052187;28;20032;-58
2023/12/19 00:45:39;;;;;;;39.00;17.60;;;;;;;4.35;100.00;102419.44;5050865;28;20465;-57
2023/12/19 00:48:05;;;;;;;38.75;16.77;;;;;;;4.32;100.00;102408.91;5055793;28;20040;-60
2023/12/19 00:50:30;;;;;;;37.83;16.70;;;;;;;4.32;100.00;102405.34;5059344;28;20436;-58
2023/12/19 00:52:55;;;;;;;36.45;15.77;;;;;;;4.37;100.00;102397.28;5071207;28;20465;-58
2023/12/19 00:55:21;;;;;;;35.97;15.93;;;;;;;4.34;100.00;102398.56;5066626;28;20040;-58
2023/12/19 00:57:46;;;;;;;38.05;17.90;;;;;;;4.34;100.00;102375.84;5062274;28;20151;-57
2023/12/19 01:00:12;;;;;;;36.17;18.17;;;;;;;4.34;100.00;102376.66;5046558;28;20397;-58
2023/12/19 01:02:37;;;;;;;37.00;17.25;;;;;;;4.28;100.00;102372.09;5062216;28;20468;-57
2023/12/19 01:05:03;;;;;;;34.78;14.75;;;;;;;4.34;100.00;102379.41;5067188;28;20056;-57
2023/12/19 01:07:28;;;;;;;40.08;17.58;;;;;;;4.34;100.00;102367.63;5062232;28;20025;-57
2023/12/19 01:09:53;;;;;;;37.03;16.63;;;;;;;4.35;100.00;102361.91;5054650;28;20025;-57
2023/12/19 01:12:19;;;;;;;38.20;16.83;;;;;;;4.37;100.00;102364.41;5062058;28;20029;-58
2023/12/19 01:14:45;;;;;;;37.88;17.92;;;;;;;4.39;100.00;102364.19;5060114;28;20048;-57
2023/12/19 01:17:10;;;;;;;37.05;16.20;;;;;;;4.41;100.00;102367.53;5064297;28;20028;-58
2023/12/19 01:19:37;;;;;;;36.88;16.90;;;;;;;4.41;100.00;102362.91;5065149;28;20029;-57
2023/12/19 01:22:03;;;;;;;37.60;16.92;;;;;;;4.41;100.00;102356.56;5056135;28;20108;-58
2023/12/19 01:24:28;;;;;;;37.70;17.00;;;;;;;4.42;100.00;102355.50;5056761;28;20388;-58
2023/12/19 01:26:53;;;;;;;39.05;16.98;;;;;;;4.43;100.00;102359.91;5050854;28;20433;-58
2023/12/19 01:29:19;;;;;;;35.92;15.52;;;;;;;4.45;100.00;102355.06;5069838;28;20094;-58
2023/12/19 01:31:44;;;;;;;38.70;16.85;;;;;;;4.47;100.00;102351.00;5061043;28;20115;-58
2023/12/19 01:34:11;;;;;;;38.03;16.17;;;;;;;4.44;100.00;102345.16;5055968;28;20024;-58
2023/12/19 01:36:38;;;;;;;35.97;16.15;;;;;;;4.41;100.00;102335.50;5067484;28;20032;-59
2023/12/19 01:39:04;;;;;;;39.22;17.13;;;;;;;4.46;100.00;102343.03;5030808;28;20096;-58
2023/12/19 01:41:29;;;;;;;39.38;17.83;;;;;;;4.47;100.00;102341.97;5068953;28;20044;-59
2023/12/19 01:43:58;;;;;;;36.80;18.05;;;;;;;4.45;100.00;102355.88;5074733;28;20016;-58
2023/12/19 01:46:24;;;;;;;38.03;15.15;;;;;;;4.53;100.00;102352.81;5065139;28;20032;-58
2023/12/19 01:48:49;;;;;;;39.17;17.65;;;;;;;4.50;100.00;102356.06;5074433;28;20366;-58
2023/12/19 01:51:14;;;;;;;37.63;15.30;;;;;;;4.52;100.00;102350.31;5060000;28;20028;-58
2023/12/19 01:53:47;;;;;;;37.35;17.48;;;;;;;4.58;100.00;102349.41;5056969;28;20021;-58
2023/12/19 01:56:15;;;;;;;34.33;14.90;;;;;;;4.60;100.00;102354.69;5065995;28;20052;-59
2023/12/19 01:58:42;;;;;;;36.28;17.13;;;;;;;4.60;100.00;102349.19;5057007;28;20025;-58
2023/12/19 02:01:07;;;;;;;37.17;16.00;;;;;;;4.60;100.00;102343.72;5048432;28;20040;-59
2023/12/19 02:03:33;;;;;;;40.65;16.15;;;;;;;4.62;100.00;102336.94;5074402;28;20154;-59
2023/12/19 02:06:00;;;;;;;38.78;16.20;;;;;;;4.60;100.00;102333.56;5062339;28;20551;-60
2023/12/19 02:08:27;;;;;;;35.42;15.82;;;;;;;4.61;100.00;102346.22;5074420;28;20081;-59
2023/12/19 02:10:52;;;;;;;40.35;17.33;;;;;;;4.62;100.00;102342.41;5072684;28;20036;-60
2023/12/19 02:13:18;;;;;;;37.53;16.92;;;;;;;4.64;100.00;102339.44;5072377;28;20052;-60
2023/12/19 02:15:44;;;;;;;36.75;16.08;;;;;;;4.63;100.00;102338.59;5064662;28;20138;-60
2023/12/19 02:18:18;;;;;;;37.83;17.10;;;;;;;4.61;100.00;102318.81;5066593;28;20112;-60
2023/12/19 02:20:43;;;;;;;41.42;16.38;;;;;;;4.62;100.00;102327.88;5061721;28;20040;-59
2023/12/19 02:23:11;;;;;;;38.40;17.52;;;;;;;4.58;100.00;102311.03;5067508;28;20036;-59
2023/12/19 02:25:36;;;;;;;37.40;17.38;;;;;;;4.67;100.00;102303.34;5054647;28;20040;-58
2023/12/19 02:28:01;;;;;;;38.67;16.42;;;;;;;4.66;100.00;102316.22;5058498;28;20032;-59
2023/12/19 02:30:27;;;;;;;38.08;16.27;;;;;;;4.67;100.00;102304.19;5063462;28;20111;-58
2023/12/19 02:32:52;;;;;;;38.25;17.52;;;;;;;4.69;100.00;102307.53;5074012;28;20104;-59
2023/12/19 02:35:17;;;;;;;37.35;15.57;;;;;;;4.72;100.00;102302.66;5061865;28;20025;-59
2023/12/19 02:37:43;;;;;;;38.75;16.75;;;;;;;4.71;100.00;102309.19;5071655;28;20074;-58
2023/12/19 02:40:10;;;;;;;38.15;17.27;;;;;;;4.71;100.00;102303.72;5064667;28;20120;-58
2023/12/19 02:42:40;;;;;;;38.97;15.75;;;;;;;4.64;100.00;102288.19;5058880;28;20032;-58
2023/12/19 02:45:06;;;;;;;37.80;17.02;;;;;;;4.63;100.00;102289.25;5045542;28;20116;-58
2023/12/19 02:47:31;;;;;;;35.10;16.27;;;;;;;4.67;100.00;102292.38;5064327;28;20036;-57
2023/12/19 02:49:56;;;;;;;34.08;14.05;;;;;;;4.68;100.00;102283.09;5060180;28;20029;-58
2023/12/19 02:52:22;;;;;;;33.35;16.15;;;;;;;4.67;100.00;102282.28;5057838;28;20499;-58
2023/12/19 02:54:47;;;;;;;32.63;15.18;;;;;;;4.67;100.00;102279.53;5070935;28;20028;-58
2023/12/19 02:57:12;;;;;;;34.70;14.95;;;;;;;4.66;100.00;102269.63;5060708;28;20044;-58
2023/12/19 02:59:37;;;;;;;35.47;15.88;;;;;;;4.64;100.00;102249.81;5060634;28;20033;-57
2023/12/19 03:02:03;;;;;;;34.33;15.77;;;;;;;4.69;100.00;102251.88;5058564;28;20036;-58
2023/12/19 03:04:28;;;;;;;41.70;17.67;;;;;;;4.61;100.00;102246.72;5053175;28;20365;-58
2023/12/19 03:06:53;;;;;;;37.17;17.13;;;;;;;4.67;100.00;102251.25;5058884;28;20028;-58
2023/12/19 03:09:19;;;;;;;33.03;14.18;;;;;;;4.58;100.00;102247.16;5070737;28;20125;-58
2023/12/19 03:12:00;;;;;;;36.38;16.48;;;;;;;4.51;100.00;102244.50;5065221;28;20079;-58
2023/12/19 03:14:25;;;;;;;34.15;14.73;;;;;;;4.49;100.00;102242.00;5055733;28;20136;-58
2023/12/19 03:16:50;;;;;;;35.75;16.73;;;;;;;4.52;100.00;102237.97;5061736;28;20036;-58
2023/12/19 03:19:16;;;;;;;31.70;13.70;;;;;;;4.50;100.00;102229.97;5052874;28;20021;-58
2023/12/19 03:21:41;;;;;;;32.33;14.00;;;;;;;4.54;100.00;102219.38;5060590;28;20028;-58
2023/12/19 03:24:06;;;;;;;32.53;14.38;;;;;;;4.53;100.00;102220.44;5064206;28;20024;-58
2023/12/19 03:26:31;;;;;;;33.78;14.52;;;;;;;4.57;100.00;102218.06;5063400;28;20037;-58
2023/12/19 03:28:57;;;;;;;34.85;16.05;;;;;;;4.50;100.00;102210.78;5052762;28;20079;-58
2023/12/19 03:31:22;;;;;;;34.45;15.63;;;;;;;4.45;100.00;102198.84;5062286;28;20495;-58
2023/12/19 03:33:47;;;;;;;35.25;15.00;;;;;;;4.50;100.00;102207.19;5058659;28;20036;-58
2023/12/19 03:36:13;;;;;;;32.20;13.38;;;;;;;4.57;100.00;102186.03;5065971;28;20442;-58
2023/12/19 03:38:38;;;;;;;35.35;14.95;;;;;;;4.50;100.00;102186.13;5056283;28;20029;-58
2023/12/19 03:41:05;;;;;;;32.42;14.35;;;;;;;4.55;100.00;102184.56;5067041;28;20037;-58
2023/12/19 03:43:30;;;;;;;31.75;15.27;;;;;;;4.55;100.00;102179.94;5052473;28;20499;-57
2023/12/19 03:46:00;;;;;;;31.15;13.15;;;;;;;4.58;100.00;102163.03;5065285;28;20115;-57
2023/12/19 03:48:26;;;;;;;31.48;13.00;;;;;;;4.57;100.00;102158.63;5053262;28;20028;-57
2023/12/19 03:50:51;;;;;;;34.35;14.52;;;;;;;4.58;100.00;102159.47;5052127;28;20055;-58
2023/12/19 03:53:16;;;;;;;30.58;13.57;;;;;;;4.62;100.00;102157.94;5070366;28;20365;-58
2023/12/19 03:55:42;;;;;;;32.55;14.45;;;;;;;4.63;100.00;102165.09;5051998;28;20035;-58
2023/12/19 03:58:07;;;;;;;30.20;13.15;;;;;;;4.72;100.00;102165.56;5059261;28;20496;-57
2023/12/19 04:00:32;;;;;;;31.20;13.10;;;;;;;4.75;100.00;102168.69;5070445;28;20162;-58
2023/12/19 04:02:57;;;;;;;29.67;12.60;;;;;;;4.69;100.00;102164.16;5055011;28;20388;-58
2023/12/19 04:05:23;;;;;;;30.92;13.38;;;;;;;4.68;100.00;102162.47;5051884;28;20025;-58
2023/12/19 04:07:48;;;;;;;31.40;11.80;;;;;;;4.72;100.00;102151.88;5057126;28;20539;-58
2023/12/19 04:10:13;;;;;;;30.67;12.77;;;;;;;4.73;100.00;102156.28;5056813;28;20130;-58
2023/12/19 04:12:39;;;;;;;31.73;13.73;;;;;;;4.73;100.00;102162.59;5056881;28;20036;-58
2023/12/19 04:15:04;;;;;;;30.55;13.32;;;;;;;4.77;100.00;102152.84;5052002;28;20029;-58
2023/12/19 04:17:30;;;;;;;29.83;13.52;;;;;;;4.78;100.00;102151.78;5070750;28;20150;-58
2023/12/19 04:19:55;;;;;;;31.38;13.23;;;;;;;4.78;100.00;102131.72;5058947;28;20052;-58
2023/12/19 04:22:20;;;;;;;33.90;15.40;;;;;;;4.81;100.00;102137.59;5067364;28;20094;-58
2023/12/19 04:24:45;;;;;;;33.95;15.07;;;;;;;4.80;100.00;102127.69;5059484;28;20032;-58
2023/12/19 04:27:11;;;;;;;36.53;18.63;;;;;;;4.77;100.00;102114.44;5056915;28;20037;-58
2023/12/19 04:29:36;;;;;;;35.65;14.65;;;;;;;4.76;100.00;102110.03;5061516;28;20040;-58
2023/12/19 04:32:02;;;;;;;34.40;15.40;;;;;;;4.76;100.00;102110.03;5059241;28;20036;-58
2023/12/19 04:34:27;;;;;;;35.97;15.43;;;;;;;4.79;100.00;102095.03;5059539;28;20028;-57
2023/12/19 04:36:53;;;;;;;39.25;16.08;;;;;;;4.80;100.00;102092.06;5062890;28;20055;-58
2023/12/19 04:39:18;;;;;;;34.45;16.02;;;;;;;4.81;100.00;102093.72;5055900;28;20078;-58
2023/12/19 04:41:43;;;;;;;39.55;16.85;;;;;;;4.88;100.00;102090.03;5050545;28;20025;-58
2023/12/19 04:44:09;;;;;;;37.88;16.02;;;;;;;4.85;100.00;102080.38;5056109;28;20032;-57
2023/12/19 04:46:34;;;;;;;37.60;17.90;;;;;;;4.84;100.00;102092.41;5063808;28;20029;-57
2023/12/19 04:48:59;;;;;;;42.30;18.73;;;;;;;4.88;100.00;102084.56;5055117;28;20384;-58
2023/12/19 04:51:25;;;;;;;39.35;17.70;;;;;;;4.88;100.00;102084.56;5066810;28;20029;-58
2023/12/19 04:53:50;;;;;;;42.75;20.35;;;;;;;4.93;100.00;102081.91;5052428;28;20437;-58
2023/12/19 04:56:18;;;;;;;40.80;17.65;;;;;;;4.97;100.00;102085.88;5050764;28;20123;-58
2023/12/19 04:58:48;;;;;;;42.35;19.92;;;;;;;4.94;100.00;102078.97;5060718;28;20035;-58
2023/12/19 05:01:14;;;;;;;41.78;18.42;;;;;;;4.93;100.00;102071.78;5069375;28;20082;-58
2023/12/19 05:03:41;;;;;;;40.22;19.50;;;;;;;5.01;100.00;102056.88;5055405;28;20044;-58
2023/12/19 05:06:07;;;;;;;41.70;19.42;;;;;;;5.01;100.00;102062.34;5056288;28;20472;-59
2023/12/19 05:08:33;;;;;;;42.03;18.48;;;;;;;5.04;100.00;102064.63;5064987;28;20090;-58
2023/12/19 05:10:58;;;;;;;40.72;18.27;;;;;;;5.07;100.00;102060.56;5064002;28;20034;-58
2023/12/19 05:13:26;;;;;;;38.97;18.15;;;;;;;5.12;100.00;102050.56;5052255;28;20119;-58
2023/12/19 05:15:51;;;;;;;35.05;15.23;;;;;;;5.09;100.00;102059.28;5064275;28;20040;-58
2023/12/19 05:18:18;;;;;;;39.05;17.08;;;;;;;5.11;100.00;102046.13;5053994;28;20762;-58
2023/12/19 05:20:44;;;;;;;39.28;17.75;;;;;;;5.12;100.00;102058.78;5070974;28;20523;-58
2023/12/19 05:23:09;;;;;;;40.63;17.85;;;;;;;5.13;100.00;102052.22;5064919;28;20035;-57
2023/12/19 05:25:35;;;;;;;39.53;18.98;;;;;;;5.20;100.00;102054.84;5050862;28;20028;-57
2023/12/19 05:28:00;;;;;;;40.65;19.20;;;;;;;5.15;100.00;102052.81;5059053;28;20529;-58
2023/12/19 05:30:25;;;;;;;40.42;19.45;;;;;;;5.19;100.00;102053.19;5056300;28;20033;-58
2023/12/19 05:32:50;;;;;;;37.47;18.88;;;;;;;5.25;100.00;102045.91;5050732;28;20100;-58
2023/12/19 05:35:16;;;;;;;38.65;18.48;;;;;;;5.24;100.00;102038.75;5058435;28;20025;-58
2023/12/19 05:37:42;;;;;;;39.67;18.05;;;;;;;5.33;100.00;102039.22;5068622;28;20023;-57
2023/12/19 05:40:08;;;;;;;40.28;19.80;;;;;;;5.26;100.00;102042.09;5070570;28;20040;-58
2023/12/19 05:42:33;;;;;;;38.08;18.65;;;;;;;5.27;100.00;102044.56;5067566;28;20028;-57
2023/12/19 05:44:58;;;;;;;39.00;18.75;;;;;;;5.33;100.00;102041.97;5055336;28;20044;-57
2023/12/19 05:47:23;;;;;;;41.60;18.17;;;;;;;5.34;100.00;102063.66;5050164;28;20040;-57
2023/12/19 05:49:49;;;;;;;41.03;20.70;;;;;;;5.33;100.00;102047.44;5058087;28;20044;-57
2023/12/19 05:52:14;;;;;;;36.05;16.60;;;;;;;5.37;100.00;102035.75;5068804;28;20048;-57
2023/12/19 05:54:39;;;;;;;40.35;19.25;;;;;;;5.37;100.00;102022.03;5063189;28;20032;-57
2023/12/19 05:57:05;;;;;;;37.03;17.92;;;;;;;5.41;100.00;102023.19;5053710;28;20055;-57
2023/12/19 05:59:30;;;;;;;35.47;16.98;;;;;;;5.42;100.00;102024.03;5063735;28;20024;-57
2023/12/19 06:01:55;;;;;;;39.88;19.63;;;;;;;5.39;100.00;101995.16;5068236;28;20051;-57
2023/12/19 06:04:20;;;;;;;40.05;18.83;;;;;;;5.37;100.00;102002.81;5068822;28;20028;-56
2023/12/19 06:06:46;;;;;;;37.05;16.63;;;;;;;5.41;100.00;101993.00;5049773;28;20048;-56
2023/12/19 06:09:11;;;;;;;40.55;18.67;;;;;;;5.41;100.00;102003.16;5055321;28;20115;-56
2023/12/19 06:11:37;;;;;;;37.28;17.75;;;;;;;5.44;100.00;101998.00;5051110;28;20444;-57
2023/12/19 06:14:04;;;;;;;38.65;18.83;;;;;;;5.44;100.00;102000.75;5066489;28;20488;-57
2023/12/19 06:16:29;;;;;;;38.85;17.08;;;;;;;5.45;100.00;102004.31;5062797;28;20029;-56
2023/12/19 06:18:54;;;;;;;37.88;17.55;;;;;;;5.49;100.00;102004.66;5053505;28;20033;-57
2023/12/19 06:21:20;;;;;;;34.75;16.42;;;;;;;5.51;100.00;102011.59;5049369;28;20430;-57
2023/12/19 06:23:45;;;;;;;35.28;18.17;;;;;;;5.50;100.00;102003.59;5061727;28;20032;-57
2023/12/19 06:26:10;;;;;;;38.25;17.75;;;;;;;5.49;100.00;101991.78;5070327;28;20457;-57
2023/12/19 06:28:37;;;;;;;36.55;15.95;;;;;;;5.57;100.00;101996.91;5058243;28;20029;-57
2023/12/19 06:31:02;;;;;;;35.92;17.33;;;;;;;5.53;100.00;102001.19;5067638;28;20040;-57
2023/12/19 06:33:28;;;;;;;37.47;18.88;;;;;;;5.52;100.00;101994.06;5061467;28;20100;-56
2023/12/19 06:35:53;;;;;;;37.83;18.88;;;;;;;5.58;100.00;102004.06;5065549;28;20029;-58
2023/12/19 06:38:18;;;;;;;35.00;17.73;;;;;;;5.57;100.00;102013.38;5063379;28;20098;-58
2023/12/19 06:40:45;;;;;;;35.78;16.38;;;;;;;5.58;100.00;102003.22;5057568;28;20033;-58
2023/12/19 06:43:11;;;;;;;34.30;17.20;;;;;;;5.56;100.00;101997.97;5071069;28;20024;-58
2023/12/19 06:45:37;;;;;;;38.90;16.98;;;;;;;5.55;100.00;101993.56;5064910;28;20033;-58
2023/12/19 06:48:02;;;;;;;36.95;18.48;;;;;;;5.57;100.00;101991.41;5057461;28;20039;-59
2023/12/19 06:50:28;;;;;;;36.42;17.67;;;;;;;5.59;100.00;101986.50;5055782;28;20043;-59
2023/12/19 06:52:54;;;;;;;34.75;18.40;;;;;;;5.56;100.00;101995.22;5062446;28;20025;-58
2023/12/19 06:55:20;;;;;;;35.90;18.10;;;;;;;5.59;100.00;102002.13;5061941;28;20029;-58
2023/12/19 06:57:45;;;;;;;35.38;17.35;;;;;;;5.61;100.00;101989.84;5060254;28;20368;-59
2023/12/19 07:00:11;;;;;;;35.22;17.00;;;;;;;5.65;100.00;101992.09;5062369;28;20075;-58
2023/12/19 07:02:36;;;;;;;34.80;16.60;;;;;;;5.68;100.00;101986.94;5071884;28;20406;-58
2023/12/19 07:05:02;;;;;;;33.13;17.08;;;;;;;5.73;100.00;101977.97;5062923;28;20029;-58
2023/12/19 07:07:27;;;;;;;35.63;17.30;;;;;;;5.71;100.00;101972.72;5071959;28;20060;-59
2023/12/19 07:09:53;;;;;;;35.65;17.20;;;;;;;5.71;100.00;101969.16;5057272;28;20064;-56
2023/12/19 07:12:18;;;;;;;35.78;16.48;;;;;;;5.75;100.00;101973.06;5052879;28;20029;-58
2023/12/19 07:14:43;;;;;;;34.65;15.95;;;;;;;5.76;100.00;101966.50;5058696;28;20045;-59
2023/12/19 07:17:09;;;;;;;32.85;15.30;;;;;;;5.79;100.00;101971.50;5058513;28;20033;-58
2023/12/19 07:19:35;;;;;;;35.13;16.23;;;;;;;5.74;100.00;101976.88;5053127;28;20024;-58
2023/12/19 07:22:00;;;;;;;35.92;17.38;;;;;;;5.72;100.00;101974.41;5054140;28;20044;-59
2023/12/19 07:24:25;;;;;;;36.17;18.60;;;;;;;5.72;100.00;101968.06;5062093;28;20166;-58
2023/12/19 07:26:51;;;;;;;35.35;16.75;;;;;;;5.80;100.00;101964.94;5060592;28;20368;-58
2023/12/19 07:29:16;;;;;;;35.05;16.00;;;;;;;5.74;100.00;101963.16;5050539;28;20560;-58
2023/12/19 07:31:42;;;;;;;32.47;16.55;;;;;;;5.76;100.00;101958.25;5054994;28;20080;-59
2023/12/19 07:34:07;;;;;;;35.20;16.42;;;;;;;5.72;100.00;101963.41;5063411;28;20097;-58
2023/12/19 07:36:33;;;;;;;34.83;16.77;;;;;;;5.80;100.00;101972.34;5064654;28;20491;-58
2023/12/19 07:38:59;;;;;;;31.58;14.57;;;;;;;5.83;100.00;101978.16;5052335;28;20085;-58
2023/12/19 07:41:27;;;;;;;32.53;15.35;;;;;;;5.82;100.00;101971.00;5065101;28;20036;-56
2023/12/19 07:43:56;;;;;;;32.50;15.65;;;;;;;5.82;100.00;101987.47;5064837;28;20036;-56
2023/12/19 07:46:21;;;;;;;35.10;16.23;;;;;;;5.87;100.00;101975.75;5065526;28;20032;-55
2023/12/19 07:48:46;;;;;;;33.53;16.02;;;;;;;5.93;100.00;101966.53;5051070;28;20036;-56
2023/12/19 07:51:23;;;;;;;30.42;15.48;;;;;;;5.94;100.00;101968.22;5057523;28;20115;-56
2023/12/19 07:53:49;;;;;;;31.92;16.98;;;;;;;5.96;100.00;101957.78;5049579;28;20025;-56
2023/12/19 07:56:15;;;;;;;31.73;14.90;;;;;;;6.00;100.00;101963.69;5049127;28;20151;-56
2023/12/19 07:58:41;;;;;;;31.30;15.32;;;;;;;5.96;100.00;101955.03;5049496;28;20100;-58
2023/12/19 08:01:11;;;;;;;29.90;14.05;;;;;;;5.97;100.00;101948.47;5049385;28;20091;-58
2023/12/19 08:03:37;;;;;;;31.20;14.60;;;;;;;6.04;100.00;101959.34;5049540;28;20028;-58
2023/12/19 08:06:03;;;;;;;31.27;13.90;;;;;;;6.01;100.00;101946.94;5049355;28;20357;-59
2023/12/19 08:08:28;;;;;;;36.05;17.67;;;;;;;6.00;100.00;101941.72;5049380;28;20025;-59
2023/12/19 08:10:54;;;;;;;30.70;15.77;;;;;;;6.03;100.00;101942.03;5050797;28;20134;-56
2023/12/19 08:13:22;;;;;;;31.17;14.80;;;;;;;6.06;100.00;101941.53;5059223;28;20043;-58
2023/12/19 08:15:48;;;;;;;30.58;13.68;;;;;;;6.07;100.00;101923.13;5064901;28;20028;-57
2023/12/19 08:18:14;;;;;;;31.92;14.52;;;;;;;6.07;100.00;101932.19;5069068;28;20091;-58
2023/12/19 08:20:40;;;;;;;31.38;13.73;;;;;;;6.05;100.00;101933.53;5068351;28;20066;-59
2023/12/19 08:23:05;;;;;;;30.45;14.25;;;;;;;6.05;100.00;101939.03;5067170;28;20029;-57
2023/12/19 08:25:31;;;;;;;32.30;14.52;;;;;;;6.01;100.00;101944.19;5067682;28;20051;-56
2023/12/19 08:27:56;;;;;;;30.65;13.13;;;;;;;6.11;100.00;101939.94;5067265;28;20032;-56
2023/12/19 08:30:24;;;;;;;29.85;13.00;;;;;;;6.01;100.00;101932.34;5067162;28;20043;-56
2023/12/19 08:32:50;;;;;;;28.90;13.30;;;;;;;5.97;100.00;101923.75;5067654;28;20033;-56
2023/12/19 08:35:18;;;;;;;29.83;13.27;;;;;;;5.99;100.00;101929.88;5067490;28;20362;-56
2023/12/19 08:37:43;;;;;;;28.65;14.43;;;;;;;5.96;100.00;101926.75;5067869;28;20121;-56
2023/12/19 08:40:09;;;;;;;29.15;13.25;;;;;;;5.94;100.00;101924.28;5067232;28;20442;-55
2023/12/19 08:42:34;;;;;;;28.40;13.32;;;;;;;5.93;100.00;101930.84;5067160;28;20024;-56
2023/12/19 08:44:59;;;;;;;26.30;11.27;;;;;;;5.99;100.00;101923.53;5067137;28;20032;-56
2023/12/19 08:47:25;;;;;;;29.15;13.40;;;;;;;5.93;100.00;101933.59;5067546;28;20117;-56
2023/12/19 08:49:53;;;;;;;25.83;12.02;;;;;;;5.97;100.00;101910.00;5066203;28;20117;-56
2023/12/19 08:52:22;;;;;;;28.35;12.45;;;;;;;5.90;100.00;101917.59;5067082;28;20135;-56
2023/12/19 08:54:48;;;;;;;28.58;12.43;;;;;;;5.88;100.00;101927.97;5058558;28;20369;-56
2023/12/19 08:57:14;;;;;;;30.33;12.82;;;;;;;5.84;100.00;101911.19;5055456;28;20473;-48
2023/12/19 08:59:40;;;;;;;28.15;12.45;;;;;;;5.82;100.00;101901.53;5066000;28;20040;-57
2023/12/19 09:02:06;;;;;;;25.90;11.70;;;;;;;5.86;100.00;101908.16;5066310;28;20448;-58
2023/12/19 09:04:31;;;;;;;26.90;12.93;;;;;;;5.84;100.00;101904.88;5061324;28;20064;-57
2023/12/19 09:06:57;;;;;;;28.52;12.48;;;;;;;5.86;100.00;101895.28;5068650;28;20478;-57
2023/12/19 09:09:22;;;;;;;30.95;13.35;;;;;;;5.84;100.00;101900.19;5068674;28;20535;-56
2023/12/19 09:11:47;;;;;;;28.52;12.13;;;;;;;5.82;100.00;101904.28;5062975;28;20029;-57
2023/12/19 09:14:14;;;;;;;27.83;11.93;;;;;;;5.85;100.00;101896.38;5059332;28;20033;-56
2023/12/19 09:16:40;;;;;;;27.65;12.00;;;;;;;5.84;100.00;101896.63;5050349;28;20059;-56
2023/12/19 09:19:05;;;;;;;29.77;13.43;;;;;;;5.82;100.00;101890.53;5057856;28;20028;-55
2023/12/19 09:21:31;;;;;;;27.27;12.05;;;;;;;5.81;100.00;101891.63;5058469;28;20029;-58
2023/12/19 09:23:56;;;;;;;27.73;11.80;;;;;;;5.82;100.00;101887.78;5056321;28;20117;-57
2023/12/19 09:26:22;;;;;;;28.40;12.13;;;;;;;5.82;100.00;101883.13;5056158;28;20085;-57
2023/12/19 09:28:47;;;;;;;27.48;10.38;;;;;;;5.86;100.00;101883.44;5057541;28;20061;-57
2023/12/19 09:31:12;;;;;;;25.33;10.00;;;;;;;5.86;100.00;101877.97;5055461;28;20029;-57
2023/12/19 09:33:39;;;;;;;26.17;11.32;;;;;;;5.80;100.00;101887.19;5059330;28;20115;-57
2023/12/19 09:36:06;;;;;;;25.67;10.65;;;;;;;5.86;100.00;101880.72;5059050;28;20460;-57
2023/12/19 09:38:32;;;;;;;25.23;10.20;;;;;;;5.83;100.00;101870.25;5058222;28;20028;-57
2023/12/19 09:40:57;;;;;;;27.15;12.65;;;;;;;5.80;100.00;101879.81;5063953;28;20435;-57
2023/12/19 09:43:22;;;;;;;26.33;11.15;;;;;;;5.85;100.00;101888.13;5068094;28;20055;-58
2023/12/19 09:45:48;;;;;;;27.27;10.77;;;;;;;5.82;100.00;101874.06;5069697;28;20024;-57
2023/12/19 09:48:14;;;;;;;26.67;10.43;;;;;;;5.89;100.00;101878.31;5067782;28;20024;-57
2023/12/19 09:50:43;;;;;;;25.20;10.77;;;;;;;5.82;100.00;101863.91;5050909;28;20112;-57
2023/12/19 09:53:09;;;;;;;25.92;11.32;;;;;;;5.84;100.00;101860.94;5049666;28;20028;-57
2023/12/19 09:55:42;;;;;;;23.88;9.90;;;;;;;5.89;100.00;101867.34;5049864;28;20063;-57
2023/12/19 09:58:08;;;;;;;25.35;11.57;;;;;;;5.93;100.00;101859.44;5065694;28;20047;-57
2023/12/19 10:00:36;;;;;;;24.77;11.25;;;;;;;5.92;100.00;101847.59;5062722;28;20029;-57
2023/12/19 10:03:03;;;;;;;26.50;12.00;;;;;;;5.93;100.00;101852.00;5053381;28;20122;-57
2023/12/19 10:05:29;;;;;;;24.77;9.77;;;;;;;6.00;100.00;101845.56;5052300;28;20496;-57
2023/12/19 10:07:57;;;;;;;24.65;10.65;;;;;;;6.03;100.00;101836.78;5052101;28;20048;-60
2023/12/19 10:10:27;;;;;;;24.08;9.55;;;;;;;6.02;100.00;101837.88;5052492;28;20036;-57
2023/12/19 10:12:52;;;;;;;23.63;9.07;;;;;;;6.05;100.00;101829.97;5052037;28;20658;-57
2023/12/19 10:15:17;;;;;;;23.83;9.93;;;;;;;6.03;100.00;101837.66;5052203;28;20127;-57
2023/12/19 10:18:10;;;;;;;22.88;8.50;;;;;;;6.03;100.00;101823.91;5061583;28;20043;-57
2023/12/19 10:20:37;;;;;;;22.30;8.38;;;;;;;6.09;100.00;101822.91;5063861;28;20056;-57
2023/12/19 10:23:06;;;;;;;21.60;7.85;;;;;;;6.15;100.00;101817.47;5050324;28;20432;-57
2023/12/19 10:25:32;;;;;;;22.65;8.65;;;;;;;6.12;100.00;101826.22;5052170;28;20031;-57
2023/12/19 10:28:07;;;;;;;23.10;9.02;;;;;;;6.13;100.00;101814.97;5051934;28;20044;-57
2023/12/19 10:30:33;;;;;;;21.50;8.57;;;;;;;6.14;100.00;101827.63;5051983;28;20100;-57
2023/12/19 10:32:59;;;;;;;21.80;8.32;;;;;;;6.15;100.00;101810.06;5052283;28;20027;-57
2023/12/19 10:35:24;;;;;;;21.65;8.43;;;;;;;6.16;100.00;101806.25;5071567;28;20029;-56
2023/12/19 10:37:49;;;;;;;22.05;8.45;;;;;;;6.14;100.00;101800.16;5071670;28;20111;-57
2023/12/19 10:40:19;;;;;;;20.67;7.43;;;;;;;6.21;100.00;101783.50;5071977;28;20091;-57
2023/12/19 10:42:53;;;;;;;20.23;7.80;;;;;;;6.24;100.00;101789.31;5071749;28;20029;-56
2023/12/19 10:45:20;;;;;;;19.58;6.32;;;;;;;6.28;100.00;101773.16;5071539;28;20111;-56
2023/12/19 10:47:46;;;;;;;19.50;6.63;;;;;;;6.29;100.00;101776.72;5071468;28;20074;-56
2023/12/19 10:50:11;;;;;;;21.25;8.68;;;;;;;6.32;100.00;101788.06;5071286;28;20032;-56
2023/12/19 10:52:40;;;;;;;20.27;7.80;;;;;;;6.35;100.00;101767.47;5063737;28;20029;-55
2023/12/19 10:55:11;;;;;;;21.88;7.63;;;;;;;6.36;100.00;101769.97;5051120;28;20036;-56
2023/12/19 10:57:37;;;;;;;20.63;7.18;;;;;;;6.33;100.00;101766.88;5071357;28;20054;-56
2023/12/19 11:00:09;;;;;;;21.85;7.88;;;;;;;6.33;100.00;101750.41;5069699;28;20059;-56
2023/12/19 11:02:45;;;;;;;21.60;7.30;;;;;;;6.37;100.00;101741.38;5072329;28;20028;-56
2023/12/19 11:05:40;;;;;;;21.15;7.95;;;;;;;6.34;100.00;101733.66;5071999;28;20036;-56